Time;durP1;ratioP1;P1;durP2;ratioP2;P2;SDS_P1;SDS_P2;PMS_P1;PMS_P2;Temp;Humidity;BMP_temperature;BMP_pressure;BME280_temperature;BME280_humidity;BME280_pressure;Samples;Min_cycle;Max_cycle;Signal;HPM_P1;HPM_P2
2021/09/01 00:01:35;;;;;;;12.02;8.57;;;;;;;13.97;84.67;97003.50;4955157;29;20051;-82
2021/09/01 00:04:02;;;;;;;11.23;8.02;;;;;;;13.97;84.35;97008.97;4951587;29;20411;-82
2021/09/01 00:06:29;;;;;;;11.15;8.25;;;;;;;14.00;83.89;96995.44;4955131;29;20085;-83
2021/09/01 00:08:56;;;;;;;11.65;8.50;;;;;;;14.01;83.56;96999.00;4954866;29;20495;-82
2021/09/01 00:11:23;;;;;;;12.43;8.70;;;;;;;13.95;83.84;97000.28;4954082;29;20511;-83
2021/09/01 00:13:50;;;;;;;12.52;8.88;;;;;;;13.92;84.14;97006.41;4954077;29;20462;-80
2021/09/01 00:16:27;;;;;;;13.45;8.48;;;;;;;13.93;84.12;97008.00;4954461;29;20047;-84
2021/09/01 00:18:53;;;;;;;12.77;8.93;;;;;;;13.87;84.25;97006.56;4953311;29;20126;-83
2021/09/01 00:21:20;;;;;;;11.77;8.25;;;;;;;13.84;84.63;97017.03;4954096;29;20406;-82
2021/09/01 00:23:47;;;;;;;9.98;8.13;;;;;;;13.83;84.56;97014.59;4954440;29;20053;-85
2021/09/01 00:26:14;;;;;;;13.63;9.30;;;;;;;13.83;84.49;97022.81;4951623;29;20043;-84
2021/09/01 00:28:40;;;;;;;12.38;8.95;;;;;;;13.81;84.70;97022.34;4953131;29;20055;-82
2021/09/01 00:31:07;;;;;;;13.82;8.98;;;;;;;13.79;84.59;97014.47;4954019;29;20521;-85
2021/09/01 00:33:33;;;;;;;13.88;9.02;;;;;;;13.77;84.90;97024.91;4954312;29;20714;-84
2021/09/01 00:36:00;;;;;;;15.02;9.00;;;;;;;13.76;84.94;97028.78;4954472;29;20051;-83
2021/09/01 00:38:26;;;;;;;13.05;7.93;;;;;;;13.73;84.91;97025.88;4953967;29;20043;-84
2021/09/01 00:40:55;;;;;;;13.73;9.02;;;;;;;13.72;85.04;97025.06;4954442;29;20058;-83
2021/09/01 00:43:22;;;;;;;13.27;8.63;;;;;;;13.68;84.97;97028.81;4953834;29;20051;-84
2021/09/01 00:45:49;;;;;;;11.57;8.38;;;;;;;13.64;85.29;97025.91;4954306;29;20051;-84
2021/09/01 00:48:17;;;;;;;13.95;9.55;;;;;;;13.62;85.22;97027.31;4952969;28;20498;-82
2021/09/01 00:50:44;;;;;;;12.88;9.05;;;;;;;13.64;85.20;97028.63;4954125;29;20069;-83
2021/09/01 00:53:12;;;;;;;13.07;9.02;;;;;;;13.65;84.92;97030.25;4953781;29;20043;-84
2021/09/01 00:55:40;;;;;;;12.52;9.32;;;;;;;13.60;85.17;97027.66;4953998;29;20419;-85
2021/09/01 00:58:08;;;;;;;13.70;9.10;;;;;;;13.63;85.12;97032.50;4953694;29;20140;-82
2021/09/01 01:00:41;;;;;;;14.68;9.80;;;;;;;13.63;85.34;97032.50;4954020;29;20055;-84
2021/09/01 01:03:07;;;;;;;14.48;9.70;;;;;;;13.58;85.22;97029.91;4953541;29;20047;-84
2021/09/01 01:05:34;;;;;;;13.70;9.40;;;;;;;13.52;85.41;97032.00;4953743;29;20058;-81
2021/09/01 01:08:00;;;;;;;13.65;9.40;;;;;;;13.50;85.67;97033.44;4954060;29;20043;-83
2021/09/01 01:10:27;;;;;;;12.27;8.82;;;;;;;13.45;86.17;97039.88;4953082;29;20047;-83
2021/09/01 01:12:53;;;;;;;13.52;9.55;;;;;;;13.48;85.78;97041.19;4953640;29;20479;-82
2021/09/01 01:15:21;;;;;;;13.70;9.32;;;;;;;13.46;85.76;97030.53;4952944;29;20058;-84
2021/09/01 01:17:48;;;;;;;14.50;9.63;;;;;;;13.46;85.55;97037.94;4953366;29;20057;-85
2021/09/01 01:20:14;;;;;;;15.68;9.93;;;;;;;13.42;85.65;97031.50;4953234;29;20518;-85
2021/09/01 01:22:41;;;;;;;12.38;8.43;;;;;;;13.42;85.72;97034.25;4953749;29;20051;-85
2021/09/01 01:25:10;;;;;;;13.27;9.27;;;;;;;13.43;85.16;97025.72;4953077;29;20055;-84
2021/09/01 01:27:40;;;;;;;14.45;10.00;;;;;;;13.42;84.61;97032.31;4953580;29;20526;-84
2021/09/01 01:30:11;;;;;;;14.60;9.70;;;;;;;13.39;84.95;97032.13;4952586;29;20057;-84
2021/09/01 01:32:39;;;;;;;15.65;10.60;;;;;;;13.35;85.57;97029.22;4953393;29;20138;-85
2021/09/01 01:35:07;;;;;;;15.52;10.45;;;;;;;13.29;85.71;97028.56;4952845;29;20051;-85
2021/09/01 01:37:33;;;;;;;13.85;10.25;;;;;;;13.23;85.59;97034.53;4953233;29;20053;-84
2021/09/01 01:40:00;;;;;;;16.63;11.13;;;;;;;13.19;85.40;97028.84;4953123;29;20043;-84
2021/09/01 01:42:26;;;;;;;15.35;10.35;;;;;;;13.18;85.47;97031.91;4953030;29;20047;-84
2021/09/01 01:44:54;;;;;;;16.58;10.32;;;;;;;13.13;85.39;97035.59;4953270;29;20055;-82
2021/09/01 01:47:21;;;;;;;16.35;10.98;;;;;;;13.13;85.60;97034.78;4952466;29;20721;-83
2021/09/01 01:49:47;;;;;;;16.33;10.63;;;;;;;13.09;85.30;97037.34;4953318;29;20050;-84
2021/09/01 01:52:14;;;;;;;16.88;10.85;;;;;;;13.06;85.06;97036.06;4952555;29;20051;-85
2021/09/01 01:54:40;;;;;;;16.88;11.40;;;;;;;13.02;84.94;97034.28;4952718;29;20069;-83
2021/09/01 01:57:07;;;;;;;16.00;11.02;;;;;;;13.01;85.09;97032.66;4952641;29;20138;-84
2021/09/01 01:59:33;;;;;;;14.23;10.20;;;;;;;13.02;85.00;97034.28;4953024;28;20063;-84
2021/09/01 02:02:01;;;;;;;19.73;12.57;;;;;;;13.08;84.73;97038.47;4952776;29;20051;-84
2021/09/01 02:04:28;;;;;;;15.88;11.40;;;;;;;13.07;85.48;97042.34;4952562;29;20409;-83
2021/09/01 02:06:54;;;;;;;16.50;12.07;;;;;;;13.07;85.67;97037.66;4953034;29;20055;-85
2021/09/01 02:09:21;;;;;;;18.10;11.60;;;;;;;13.05;86.09;97033.66;4952343;29;20043;-84
2021/09/01 02:11:47;;;;;;;16.33;12.15;;;;;;;13.04;86.07;97042.94;4952978;29;20051;-85
2021/09/01 02:14:14;;;;;;;16.90;10.50;;;;;;;13.01;86.56;97046.34;4952168;29;20054;-83
2021/09/01 02:16:40;;;;;;;14.73;10.23;;;;;;;12.94;86.35;97043.25;4952800;29;20055;-83
2021/09/01 02:19:10;;;;;;;18.13;10.68;;;;;;;12.86;85.95;97046.75;4952170;29;20051;-85
2021/09/01 02:21:37;;;;;;;16.52;11.32;;;;;;;12.80;85.74;97049.63;4952759;29;20061;-84
2021/09/01 02:24:04;;;;;;;15.70;11.20;;;;;;;12.79;85.64;97048.03;4951741;29;20102;-83
2021/09/01 02:26:31;;;;;;;17.23;11.73;;;;;;;12.76;85.61;97047.84;4952842;29;20147;-82
2021/09/01 02:28:57;;;;;;;16.98;11.73;;;;;;;12.77;85.50;97049.44;4952294;29;20051;-83
2021/09/01 02:31:24;;;;;;;17.83;12.00;;;;;;;12.78;85.51;97040.94;4952031;29;20058;-81
2021/09/01 02:33:51;;;;;;;17.58;11.85;;;;;;;12.78;85.75;97040.94;4952381;29;20663;-85
2021/09/01 02:36:19;;;;;;;17.58;11.63;;;;;;;12.74;85.36;97036.44;4951868;29;20051;-83
2021/09/01 02:38:45;;;;;;;19.02;12.40;;;;;;;12.70;85.23;97041.72;4952349;29;20053;-83
2021/09/01 02:41:12;;;;;;;18.25;12.35;;;;;;;12.66;85.12;97045.38;4952042;29;20058;-84
2021/09/01 02:43:39;;;;;;;19.67;13.13;;;;;;;12.62;85.00;97042.47;4952424;29;20057;-83
2021/09/01 02:46:06;;;;;;;21.30;12.32;;;;;;;12.59;85.22;97054.03;4952098;29;20071;-84
2021/09/01 02:48:33;;;;;;;18.50;12.43;;;;;;;12.58;85.21;97055.16;4952410;29;20518;-84
2021/09/01 02:50:59;;;;;;;20.77;12.88;;;;;;;12.56;85.22;97060.13;4952514;29;20513;-82
2021/09/01 02:53:27;;;;;;;23.08;13.45;;;;;;;12.51;85.04;97054.78;4951943;29;20040;-84
2021/09/01 02:55:53;;;;;;;20.08;12.82;;;;;;;12.50;85.06;97058.66;4952471;29;20055;-82
2021/09/01 02:58:20;;;;;;;19.13;12.48;;;;;;;12.47;84.93;97056.53;4951903;29;20054;-84
2021/09/01 03:00:46;;;;;;;21.48;12.70;;;;;;;12.45;85.16;97059.56;4952254;29;20055;-84
2021/09/01 03:03:13;;;;;;;20.08;13.00;;;;;;;12.45;85.05;97048.66;4951369;29;20051;-84
2021/09/01 03:05:39;;;;;;;21.27;14.00;;;;;;;12.43;85.40;97039.16;4951993;29;20047;-84
2021/09/01 03:08:07;;;;;;;22.00;14.32;;;;;;;12.43;85.80;97055.56;4951783;29;20055;-85
2021/09/01 03:10:35;;;;;;;18.58;12.80;;;;;;;12.42;85.60;97046.53;4953086;28;20094;-84
2021/09/01 03:13:02;;;;;;;17.10;12.27;;;;;;;12.42;85.53;97053.94;4955520;29;20495;-84
2021/09/01 03:15:29;;;;;;;18.50;12.10;;;;;;;12.43;85.50;97055.56;4955943;29;20522;-84
2021/09/01 03:17:55;;;;;;;19.13;12.65;;;;;;;12.43;85.60;97063.75;4955882;29;20511;-83
2021/09/01 03:20:22;;;;;;;20.92;13.05;;;;;;;12.47;85.19;97064.72;4955554;29;20525;-85
2021/09/01 03:22:49;;;;;;;16.05;10.95;;;;;;;12.50;84.01;97064.09;4955689;29;20062;-83
2021/09/01 03:25:15;;;;;;;17.17;11.98;;;;;;;12.44;83.88;97065.38;4955404;29;20043;-84
2021/09/01 03:27:43;;;;;;;19.92;12.10;;;;;;;12.36;83.92;97060.63;4955703;29;20484;-84
2021/09/01 03:30:11;;;;;;;19.55;12.45;;;;;;;12.32;84.39;97063.22;4954945;29;20521;-85
2021/09/01 03:32:37;;;;;;;20.33;12.75;;;;;;;12.31;84.73;97063.50;4955568;29;20057;-81
2021/09/01 03:35:05;;;;;;;20.08;11.82;;;;;;;12.26;84.59;97065.22;4955189;29;20395;-85
2021/09/01 03:37:32;;;;;;;18.50;11.43;;;;;;;12.24;84.74;97053.81;4955382;29;20055;-85
2021/09/01 03:39:59;;;;;;;21.55;12.38;;;;;;;12.20;84.68;97058.28;4955502;29;20047;-82
2021/09/01 03:42:25;;;;;;;18.77;12.82;;;;;;;12.18;84.82;97065.19;4954950;29;20043;-85
2021/09/01 03:44:53;;;;;;;21.73;12.43;;;;;;;12.18;84.89;97065.19;4955420;29;20398;-81
2021/09/01 03:47:20;;;;;;;20.10;12.95;;;;;;;12.18;84.93;97065.19;4954911;28;20062;-84
2021/09/01 03:49:46;;;;;;;20.50;12.60;;;;;;;12.18;85.28;97071.47;4955365;29;20055;-83
2021/09/01 03:52:13;;;;;;;19.77;13.07;;;;;;;12.18;84.96;97076.91;4954891;29;20047;-85
2021/09/01 03:54:40;;;;;;;21.75;13.65;;;;;;;12.16;85.21;97079.16;4955115;29;20447;-84
2021/09/01 03:57:06;;;;;;;21.67;14.50;;;;;;;12.15;85.21;97077.53;4954864;29;20054;-84
2021/09/01 03:59:33;;;;;;;21.65;14.48;;;;;;;12.17;85.51;97078.03;4955112;29;20057;-85
2021/09/01 04:02:01;;;;;;;20.95;13.10;;;;;;;12.16;85.64;97079.16;4955257;29;20054;-84
2021/09/01 04:04:27;;;;;;;19.30;13.55;;;;;;;12.13;85.46;97085.22;4954821;29;20054;-84
2021/09/01 04:06:54;;;;;;;22.27;13.63;;;;;;;12.08;85.26;97082.63;4955246;29;20055;-82
2021/09/01 04:09:21;;;;;;;19.00;12.48;;;;;;;12.04;85.06;97076.16;4956637;29;20055;-82
2021/09/01 04:11:47;;;;;;;19.45;12.50;;;;;;;12.03;85.04;97080.00;4954859;29;20054;-83
2021/09/01 04:14:14;;;;;;;20.38;13.38;;;;;;;12.04;84.79;97076.16;4954351;29;20520;-84
2021/09/01 04:16:40;;;;;;;20.27;13.27;;;;;;;12.05;85.14;97076.97;4954901;29;20051;-84
2021/09/01 04:19:08;;;;;;;20.73;13.15;;;;;;;12.07;85.07;97075.56;4954384;29;20065;-81
2021/09/01 04:21:34;;;;;;;21.23;13.20;;;;;;;12.10;84.77;97080.38;4954418;28;20047;-82
2021/09/01 04:24:01;;;;;;;22.73;14.43;;;;;;;12.10;84.91;97077.66;4953924;29;20661;-84
2021/09/01 04:26:27;;;;;;;20.55;13.50;;;;;;;12.07;85.10;97080.22;4953133;29;20040;-83
2021/09/01 04:28:54;;;;;;;20.38;13.68;;;;;;;12.07;85.29;97081.00;4954432;29;20051;-83
2021/09/01 04:31:21;;;;;;;20.45;14.55;;;;;;;12.09;85.65;97080.69;4954267;29;20050;-84
2021/09/01 04:33:48;;;;;;;23.38;15.20;;;;;;;12.10;85.47;97080.38;4954132;29;20511;-81
2021/09/01 04:36:16;;;;;;;23.65;13.43;;;;;;;12.09;85.59;97084.22;4953809;29;20051;-84
2021/09/01 04:38:42;;;;;;;24.38;14.40;;;;;;;12.08;85.24;97081.81;4954178;29;20065;-82
2021/09/01 04:41:09;;;;;;;20.48;13.68;;;;;;;12.06;85.39;97084.88;4953903;29;20097;-81
2021/09/01 04:43:36;;;;;;;21.63;14.35;;;;;;;12.11;85.18;97090.22;4954308;29;20418;-83
2021/09/01 04:46:03;;;;;;;22.52;13.70;;;;;;;12.13;85.00;97087.16;4953985;29;20631;-85
2021/09/01 04:48:30;;;;;;;21.00;14.35;;;;;;;12.12;85.22;97094.53;4954326;29;20051;-82
2021/09/01 04:50:56;;;;;;;24.25;14.18;;;;;;;12.10;85.70;97083.09;4954123;29;20051;-83
2021/09/01 04:53:26;;;;;;;21.38;14.25;;;;;;;12.09;85.59;97084.22;4953724;29;20051;-83
2021/09/01 04:55:52;;;;;;;22.88;14.23;;;;;;;12.13;85.98;97081.69;4952635;29;20055;-85
2021/09/01 04:58:19;;;;;;;21.77;13.40;;;;;;;12.18;85.22;97082.38;4952808;29;20110;-85
2021/09/01 05:00:45;;;;;;;25.25;14.07;;;;;;;12.16;85.06;97090.09;4954121;29;20054;-84
2021/09/01 05:03:12;;;;;;;22.85;14.80;;;;;;;12.16;85.43;97087.34;4953124;29;20417;-85
2021/09/01 05:05:39;;;;;;;19.70;13.27;;;;;;;12.18;85.64;97095.22;4954075;29;20047;-85
2021/09/01 05:08:05;;;;;;;24.67;15.18;;;;;;;12.17;85.35;97094.44;4953349;29;20043;-84
2021/09/01 05:10:34;;;;;;;20.65;14.45;;;;;;;12.17;85.85;97094.44;4953731;29;20055;-84
2021/09/01 05:13:00;;;;;;;25.48;15.07;;;;;;;12.19;85.86;97099.56;4953637;29;20047;-83
2021/09/01 05:15:27;;;;;;;21.15;14.45;;;;;;;12.20;85.80;97096.53;4953222;29;20122;-84
2021/09/01 05:17:53;;;;;;;23.80;15.15;;;;;;;12.23;85.89;97100.56;4953435;29;20055;-84
2021/09/01 05:20:20;;;;;;;23.80;14.32;;;;;;;12.23;85.80;97103.28;4952725;29;20047;-83
2021/09/01 05:22:49;;;;;;;24.23;15.05;;;;;;;12.24;86.03;97100.25;4953427;29;20043;-83
2021/09/01 05:25:16;;;;;;;23.42;14.30;;;;;;;12.27;85.63;97113.28;4953294;29;20054;-84
2021/09/01 05:27:49;;;;;;;23.75;14.23;;;;;;;12.30;85.89;97111.03;4953567;29;20058;-84
2021/09/01 05:30:17;;;;;;;22.23;13.90;;;;;;;12.31;86.14;97107.19;4953109;29;20047;-85
2021/09/01 05:32:48;;;;;;;23.70;14.45;;;;;;;12.37;85.70;97108.69;4953395;29;20509;-85
2021/09/01 05:35:15;;;;;;;20.83;12.98;;;;;;;12.41;85.33;97115.94;4952649;29;20047;-84
2021/09/01 05:37:42;;;;;;;22.27;13.50;;;;;;;12.42;85.54;97109.34;4952919;29;20043;-82
2021/09/01 05:40:11;;;;;;;18.02;12.30;;;;;;;12.43;85.60;97110.19;4952184;29;20513;-83
2021/09/01 05:42:38;;;;;;;18.08;12.52;;;;;;;12.42;86.13;97122.22;4952908;29;20062;-84
2021/09/01 05:45:08;;;;;;;21.00;13.35;;;;;;;12.43;86.28;97112.91;4952347;29;20047;-83
2021/09/01 05:47:35;;;;;;;17.90;12.13;;;;;;;12.46;86.38;97121.28;4953287;29;20081;-79
2021/09/01 05:50:02;;;;;;;18.65;12.90;;;;;;;12.46;86.58;97113.09;4952674;29;20047;-84
2021/09/01 05:52:28;;;;;;;16.58;12.20;;;;;;;12.48;86.39;97116.31;4952892;29;20059;-85
2021/09/01 05:54:58;;;;;;;20.10;12.32;;;;;;;12.51;86.13;97112.16;4953050;29;20044;-84
2021/09/01 05:57:34;;;;;;;22.05;12.68;;;;;;;12.59;85.98;97113.34;4952731;29;20043;-81
2021/09/01 06:00:05;;;;;;;22.02;11.88;;;;;;;12.63;85.97;97100.66;4953177;29;20051;-83
2021/09/01 06:02:39;;;;;;;17.98;11.95;;;;;;;12.68;86.30;97112.25;4952901;29;20054;-82
2021/09/01 06:05:07;;;;;;;19.10;12.32;;;;;;;12.78;86.10;97111.97;4952499;29;20503;-83
2021/09/01 06:07:35;;;;;;;20.00;12.55;;;;;;;12.86;86.06;97118.63;4953207;29;20051;-82
2021/09/01 06:10:04;;;;;;;17.52;12.52;;;;;;;12.93;85.96;97118.19;4952133;29;20059;-84
2021/09/01 06:12:31;;;;;;;18.90;12.25;;;;;;;12.95;86.47;97121.41;4952701;29;20057;-79
2021/09/01 06:14:58;;;;;;;17.45;12.27;;;;;;;12.97;86.48;97124.63;4952649;29;20051;-84
2021/09/01 06:17:24;;;;;;;19.35;12.57;;;;;;;13.00;86.74;97121.28;4952352;29;20039;-84
2021/09/01 06:19:52;;;;;;;18.77;12.85;;;;;;;13.05;87.19;97121.16;4952547;29;20545;-84
2021/09/01 06:22:19;;;;;;;21.08;12.73;;;;;;;13.03;87.01;97128.84;4952323;29;20528;-86
2021/09/01 06:24:45;;;;;;;19.42;12.82;;;;;;;13.02;87.50;97127.22;4952854;29;20047;-85
2021/09/01 06:27:12;;;;;;;18.45;12.40;;;;;;;13.09;87.93;97130.31;4952250;29;20498;-85
2021/09/01 06:29:38;;;;;;;21.65;12.55;;;;;;;13.21;88.24;97129.72;4952550;29;20051;-85
2021/09/01 06:32:05;;;;;;;23.13;13.38;;;;;;;13.31;88.31;97138.50;4952206;29;20043;-85
2021/09/01 06:34:32;;;;;;;21.17;14.27;;;;;;;13.46;88.55;97136.44;4952611;29;20051;-85
2021/09/01 06:37:01;;;;;;;22.00;14.32;;;;;;;13.59;88.55;97146.47;4952258;29;20051;-81
2021/09/01 06:39:27;;;;;;;21.13;13.80;;;;;;;13.72;87.45;97147.44;4952422;29;20050;-85
2021/09/01 06:41:54;;;;;;;18.70;12.68;;;;;;;13.79;85.48;97150.53;4952328;29;20047;-83
2021/09/01 06:44:20;;;;;;;19.27;12.95;;;;;;;13.81;84.62;97149.06;4952169;28;20043;-85
2021/09/01 06:46:47;;;;;;;20.17;12.95;;;;;;;13.80;84.85;97136.53;4955111;29;20047;-83
2021/09/01 06:49:13;;;;;;;17.90;12.95;;;;;;;13.80;84.69;97142.00;4955956;29;20047;-84
2021/09/01 06:51:40;;;;;;;21.48;13.73;;;;;;;13.79;84.63;97140.38;4955790;29;20697;-85
2021/09/01 06:54:08;;;;;;;19.27;13.13;;;;;;;13.80;85.46;97142.00;4955614;29;20054;-84
2021/09/01 06:56:34;;;;;;;19.40;12.95;;;;;;;13.83;85.19;97146.84;4956368;29;20047;-81
2021/09/01 06:59:01;;;;;;;18.08;12.60;;;;;;;13.94;85.58;97141.03;4956213;29;20047;-85
2021/09/01 07:01:46;;;;;;;20.10;13.50;;;;;;;13.99;85.24;97149.09;4956042;29;20062;-86
2021/09/01 07:04:12;;;;;;;22.05;13.32;;;;;;;14.02;86.17;97149.28;4955708;29;20051;-85
2021/09/01 07:06:39;;;;;;;17.85;12.52;;;;;;;14.13;86.04;97155.22;4955990;29;20047;-85
2021/09/01 07:09:06;;;;;;;17.48;12.30;;;;;;;14.27;85.63;97149.63;4955638;29;20527;-85
2021/09/01 07:11:33;;;;;;;29.17;14.57;;;;;;;14.43;85.12;97158.16;4956287;29;20047;-86
2021/09/01 07:14:00;;;;;;;15.90;12.10;;;;;;;14.54;84.69;97148.50;4956025;29;20051;-85
2021/09/01 07:16:26;;;;;;;15.65;11.90;;;;;;;14.64;83.10;97156.38;4955790;29;20502;-83
2021/09/01 07:18:53;;;;;;;17.73;12.85;;;;;;;14.72;83.19;97155.59;4955911;29;20055;-85
2021/09/01 07:21:20;;;;;;;16.83;12.63;;;;;;;14.88;84.46;97156.69;4955396;29;20531;-87
2021/09/01 07:23:47;;;;;;;16.00;11.40;;;;;;;15.07;84.75;97160.97;4955969;29;20047;-85
2021/09/01 07:26:13;;;;;;;14.50;10.90;;;;;;;15.38;83.79;97167.00;4955331;29;20047;-85
2021/09/01 07:28:41;;;;;;;16.20;10.65;;;;;;;15.73;80.91;97177.84;4955891;29;20396;-85
2021/09/01 07:31:09;;;;;;;14.07;9.20;;;;;;;16.59;78.43;97181.13;4955310;29;20048;-85
2021/09/01 07:33:36;;;;;;;13.82;8.90;;;;;;;17.58;69.55;97178.31;4955493;29;20541;-85
2021/09/01 07:36:03;;;;;;;10.43;7.85;;;;;;;18.66;66.97;97176.94;4955386;29;20044;-85
2021/09/01 07:38:30;;;;;;;11.07;7.90;;;;;;;19.61;63.66;97183.50;4955603;29;20054;-85
2021/09/01 07:40:56;;;;;;;10.75;7.32;;;;;;;20.46;61.46;97172.81;4938759;29;20054;-84
2021/09/01 07:43:26;;;;;;;9.98;7.38;;;;;;;20.97;59.28;97187.34;4952099;29;20054;-84
2021/09/01 07:45:54;;;;;;;11.82;7.10;;;;;;;21.39;54.59;97196.88;4955575;29;20429;-84
2021/09/01 07:48:21;;;;;;;11.88;7.22;;;;;;;21.71;56.25;97200.19;4956628;29;20051;-79
2021/09/01 07:50:47;;;;;;;9.38;5.95;;;;;;;22.31;53.15;97203.16;4957542;29;20051;-83
2021/09/01 07:53:14;;;;;;;9.48;5.38;;;;;;;22.84;50.27;97208.66;4954526;29;20048;-80
2021/09/01 07:55:40;;;;;;;10.52;6.32;;;;;;;23.23;50.42;97202.78;4955023;29;20054;-80
2021/09/01 07:58:07;;;;;;;8.38;5.97;;;;;;;23.74;48.55;97202.91;4954344;28;20054;-80
2021/09/01 08:00:33;;;;;;;10.30;6.07;;;;;;;24.15;48.21;97206.44;4955374;29;20062;-84
2021/09/01 08:03:01;;;;;;;8.15;5.97;;;;;;;24.49;45.96;97203.53;4954559;29;20055;-81
2021/09/01 08:05:28;;;;;;;9.18;5.65;;;;;;;24.66;47.10;97213.97;4955121;29;20103;-79
2021/09/01 08:07:54;;;;;;;9.48;6.20;;;;;;;24.95;46.56;97200.16;4955656;29;20069;-79
2021/09/01 08:10:21;;;;;;;13.05;6.88;;;;;;;25.13;45.74;97203.84;4954835;29;20498;-80
2021/09/01 08:12:48;;;;;;;9.95;5.97;;;;;;;25.24;42.00;97212.25;4955342;29;20051;-78
2021/09/01 08:15:14;;;;;;;9.68;6.00;;;;;;;25.49;43.18;97203.94;4954966;29;20051;-78
2021/09/01 08:17:41;;;;;;;11.18;5.78;;;;;;;25.59;41.17;97205.97;4953994;29;20051;-80
2021/09/01 08:20:10;;;;;;;8.38;6.55;;;;;;;25.72;43.04;97203.56;4951521;29;20047;-79
2021/09/01 08:22:37;;;;;;;8.93;6.10;;;;;;;25.87;43.51;97210.00;4954937;29;20047;-78
2021/09/01 08:25:04;;;;;;;10.10;5.95;;;;;;;25.98;40.93;97216.38;4954355;29;20043;-81
2021/09/01 08:27:30;;;;;;;7.78;5.55;;;;;;;26.13;40.99;97212.38;4954087;29;20062;-80
2021/09/01 08:29:57;;;;;;;8.93;6.00;;;;;;;26.37;42.69;97212.78;4953891;29;20051;-79
2021/09/01 08:32:24;;;;;;;6.60;4.75;;;;;;;26.25;40.08;97214.75;4950701;29;20044;-80
2021/09/01 08:34:51;;;;;;;8.20;6.03;;;;;;;26.62;41.25;97226.69;4953321;29;20055;-80
2021/09/01 08:37:19;;;;;;;6.40;5.03;;;;;;;26.90;39.26;97221.06;4953744;29;20066;-81
2021/09/01 08:39:46;;;;;;;7.78;5.10;;;;;;;26.73;39.10;97211.53;4954155;29;20142;-80
2021/09/01 08:42:13;;;;;;;7.07;5.30;;;;;;;26.86;39.91;97220.25;4953116;29;20150;-80
2021/09/01 08:44:41;;;;;;;8.60;5.07;;;;;;;27.13;39.56;97223.38;4952288;29;20058;-86
2021/09/01 08:47:08;;;;;;;9.52;5.10;;;;;;;27.33;37.34;97220.88;4951596;29;20053;-80
2021/09/01 08:49:34;;;;;;;7.40;4.72;;;;;;;27.26;36.64;97224.53;4952514;29;20426;-80
2021/09/01 08:52:01;;;;;;;8.13;4.75;;;;;;;27.38;39.68;97226.06;4952222;29;20043;-81
2021/09/01 08:54:29;;;;;;;6.82;5.10;;;;;;;27.42;39.75;97224.03;4951893;29;20483;-81
2021/09/01 08:56:56;;;;;;;7.28;4.70;;;;;;;27.71;37.74;97230.28;4952480;29;20055;-79
2021/09/01 08:59:22;;;;;;;6.20;4.72;;;;;;;27.73;36.38;97227.88;4953741;29;20051;-80
2021/09/01 09:01:50;;;;;;;7.35;5.20;;;;;;;27.29;37.71;97220.09;4954076;29;20043;-81
2021/09/01 09:04:19;;;;;;;6.70;5.00;;;;;;;27.40;38.08;97222.84;4953608;29;20054;-81
2021/09/01 09:06:48;;;;;;;8.75;4.97;;;;;;;27.65;37.27;97220.69;4953854;29;20061;-80
2021/09/01 09:09:17;;;;;;;7.45;4.78;;;;;;;27.66;34.50;97222.28;4951129;28;20134;-80
2021/09/01 09:11:46;;;;;;;7.00;4.53;;;;;;;27.74;35.27;97218.28;4953864;29;20051;-81
2021/09/01 09:14:21;;;;;;;9.70;4.20;;;;;;;27.49;33.72;97218.41;4953384;29;20499;-80
2021/09/01 09:17:00;;;;;;;7.88;4.75;;;;;;;27.50;36.86;97219.19;4953772;29;20051;-80
2021/09/01 09:19:42;;;;;;;6.93;4.50;;;;;;;27.69;34.88;97218.69;4953649;29;20040;-80
2021/09/01 09:22:09;;;;;;;;;;;;;;;28.01;36.15;97220.47;4953564;29;20050;-80
2021/09/01 09:24:36;;;;;;;6.13;4.50;;;;;;;27.63;36.30;97211.94;4952143;29;19930;-80
2021/09/01 09:27:05;;;;;;;7.30;5.03;;;;;;;26.83;36.46;97214.66;4953134;29;20638;-80
2021/09/01 09:29:31;;;;;;;5.30;4.15;;;;;;;26.14;37.11;97208.38;4953296;29;20054;-80
2021/09/01 09:32:01;;;;;;;5.80;3.95;;;;;;;25.64;37.78;97202.78;4953057;29;20051;-81
2021/09/01 09:34:35;;;;;;;6.85;4.22;;;;;;;25.56;38.46;97198.38;4953249;29;20051;-83
2021/09/01 09:37:04;;;;;;;5.80;4.00;;;;;;;25.79;39.50;97197.22;4952750;29;20058;-82
2021/09/01 09:39:42;;;;;;;5.38;4.15;;;;;;;25.73;37.42;97208.75;4953067;29;20146;-80
2021/09/01 09:42:11;;;;;;;5.35;4.03;;;;;;;25.65;39.35;97215.53;4952951;29;20047;-82
2021/09/01 09:44:38;;;;;;;5.20;3.40;;;;;;;25.37;39.11;97209.88;4953261;29;20051;-83
2021/09/01 09:47:05;;;;;;;7.72;4.43;;;;;;;24.91;39.65;97204.94;4953202;29;20059;-82
2021/09/01 09:49:33;;;;;;;6.38;3.97;;;;;;;24.38;39.48;97220.16;4954083;29;20522;-82
2021/09/01 09:52:00;;;;;;;6.55;4.28;;;;;;;23.92;41.09;97212.22;4953487;29;20081;-80
2021/09/01 09:54:28;;;;;;;7.32;4.45;;;;;;;23.42;42.93;97211.72;4953074;29;20043;-83
2021/09/01 09:57:06;;;;;;;5.60;3.78;;;;;;;23.30;46.09;97216.75;4953182;29;20450;-83
2021/09/01 09:59:36;;;;;;;7.38;4.20;;;;;;;23.10;43.07;97216.94;4952725;29;20126;-83
2021/09/01 10:02:03;;;;;;;7.45;4.60;;;;;;;23.01;44.67;97221.97;4952553;29;20047;-84
2021/09/01 10:04:30;;;;;;;6.43;4.28;;;;;;;22.79;45.55;97220.09;4953128;29;20069;-83
2021/09/01 10:06:57;;;;;;;7.18;4.18;;;;;;;22.65;46.02;97215.94;4953177;29;20043;-90
2021/09/01 10:09:24;;;;;;;6.72;4.80;;;;;;;22.46;44.94;97216.09;4952516;29;20050;-84
2021/09/01 10:11:51;;;;;;;6.28;4.30;;;;;;;22.21;42.96;97204.59;4952896;29;20196;-83
2021/09/01 10:14:20;;;;;;;7.80;4.47;;;;;;;22.05;44.93;97196.41;4952399;29;20051;-83
2021/09/01 10:16:54;;;;;;;7.03;4.53;;;;;;;21.86;45.69;97193.72;4952778;29;20067;-84
2021/09/01 10:19:26;;;;;;;7.57;4.53;;;;;;;21.81;43.44;97196.81;4952394;28;20059;-84
2021/09/01 10:21:56;;;;;;;9.65;4.50;;;;;;;21.73;43.33;97195.09;4952760;29;20080;-83
2021/09/01 10:24:28;;;;;;;9.35;4.57;;;;;;;21.70;44.43;97187.50;4952289;29;20043;-83
2021/09/01 10:27:19;;;;;;;6.35;4.40;;;;;;;21.66;45.36;97184.66;4952768;29;20581;-83
2021/09/01 10:29:53;;;;;;;7.60;4.25;;;;;;;21.50;45.00;97184.78;4947503;29;20108;-83
2021/09/01 10:32:29;;;;;;;7.57;4.40;;;;;;;21.38;42.86;97178.66;4952127;29;20055;-83
2021/09/01 10:35:30;;;;;;;7.13;4.78;;;;;;;21.21;44.51;97171.59;4933701;29;20058;-83
2021/09/01 10:37:59;;;;;;;6.78;4.57;;;;;;;21.20;45.62;97162.47;4892575;29;20063;-85
2021/09/01 10:41:05;;;;;;;6.35;4.10;;;;;;;21.14;46.01;97163.13;4933393;29;20047;-84
2021/09/01 10:43:32;;;;;;;7.65;5.13;;;;;;;21.02;47.30;97162.13;4933418;29;20052;-85
2021/09/01 10:45:58;;;;;;;8.07;4.60;;;;;;;21.04;49.28;97164.56;4916672;29;20073;-84
2021/09/01 10:48:27;;;;;;;6.65;4.18;;;;;;;21.15;47.22;97168.31;4933123;29;20044;-84
2021/09/01 10:50:53;;;;;;;6.13;4.35;;;;;;;21.24;45.96;97163.31;4933414;29;20059;-84
2021/09/01 10:53:24;;;;;;;8.30;4.70;;;;;;;21.14;46.76;97168.66;4938674;29;20048;-83
2021/09/01 10:56:00;;;;;;;7.78;4.80;;;;;;;20.94;48.02;97177.03;4935241;29;20051;-83
2021/09/01 10:58:38;;;;;;;8.57;4.43;;;;;;;20.73;47.82;97182.94;4933809;29;20677;-83
2021/09/01 11:01:10;;;;;;;7.85;4.72;;;;;;;20.67;50.90;97183.56;4933164;29;20527;-83
2021/09/01 11:03:40;;;;;;;6.83;4.13;;;;;;;20.61;49.28;97179.47;4944614;29;20459;-84
2021/09/01 11:06:18;;;;;;;6.53;4.68;;;;;;;20.52;51.44;97182.47;4951958;29;20047;-84
2021/09/01 11:09:03;;;;;;;8.05;4.90;;;;;;;20.39;47.03;97178.19;4952561;29;20074;-84
2021/09/01 11:11:44;;;;;;;6.80;4.65;;;;;;;20.31;50.90;97171.72;4952404;29;20070;-84
2021/09/01 11:14:14;;;;;;;7.45;4.55;;;;;;;20.39;52.23;97173.47;4951899;29;20051;-83
2021/09/01 11:16:40;;;;;;;5.53;4.40;;;;;;;20.48;51.44;97179.63;4952235;29;20048;-84
2021/09/01 11:19:10;;;;;;;6.75;4.65;;;;;;;20.54;51.42;97172.63;4950329;29;20055;-83
2021/09/01 11:21:44;;;;;;;6.55;4.43;;;;;;;20.73;50.37;97177.41;4951468;29;20410;-85
2021/09/01 11:24:12;;;;;;;6.97;4.32;;;;;;;20.95;52.31;97177.81;4951631;29;20059;-83
2021/09/01 11:26:39;;;;;;;6.15;4.13;;;;;;;21.07;48.77;97175.69;4951913;29;20047;-83
2021/09/01 11:29:07;;;;;;;6.13;3.80;;;;;;;21.09;46.70;97172.56;4951464;29;20055;-84